sensor_id;sensor_type;location;lat;lon;timestamp;temperature;humidity
21189;DHT22;39071;52.420;20.896;2022-10-26T00:00:49;12.10;1.00
21189;DHT22;39071;52.420;20.896;2022-10-26T00:03:15;12.10;1.00
21189;DHT22;39071;52.420;20.896;2022-10-26T00:05:42;12.10;1.00
21189;DHT22;39071;52.420;20.896;2022-10-26T00:08:08;12.10;92.70
21189;DHT22;39071;52.420;20.896;2022-10-26T00:10:35;12.00;99.90
21189;DHT22;39071;52.420;20.896;2022-10-26T00:13:01;12.00;99.90
21189;DHT22;39071;52.420;20.896;2022-10-26T00:15:27;12.00;1.00
21189;DHT22;39071;52.420;20.896;2022-10-26T00:17:53;11.90;99.90
21189;DHT22;39071;52.420;20.896;2022-10-26T00:20:19;12.00;1.00
21189;DHT22;39071;52.420;20.896;2022-10-26T00:22:45;12.00;1.00
21189;DHT22;39071;52.420;20.896;2022-10-26T00:25:11;12.00;93.20
21189;DHT22;39071;52.420;20.896;2022-10-26T00:27:37;12.00;1.00
21189;DHT22;39071;52.420;20.896;2022-10-26T00:30:04;12.00;1.00
21189;DHT22;39071;52.420;20.896;2022-10-26T00:32:31;12.10;1.00
21189;DHT22;39071;52.420;20.896;2022-10-26T00:34:57;12.10;1.00
21189;DHT22;39071;52.420;20.896;2022-10-26T00:37:23;12.10;1.00
21189;DHT22;39071;52.420;20.896;2022-10-26T00:39:48;12.20;1.00
21189;DHT22;39071;52.420;20.896;2022-10-26T00:42:18;12.20;1.00
21189;DHT22;39071;52.420;20.896;2022-10-26T00:44:54;12.20;1.00
21189;DHT22;39071;52.420;20.896;2022-10-26T00:50:01;12.20;1.00
21189;DHT22;39071;52.420;20.896;2022-10-26T00:52:28;12.20;1.00
21189;DHT22;39071;52.420;20.896;2022-10-26T00:54:55;12.20;1.00
21189;DHT22;39071;52.420;20.896;2022-10-26T00:57:21;12.20;1.00
21189;DHT22;39071;52.420;20.896;2022-10-26T00:59:48;12.30;1.00
21189;DHT22;39071;52.420;20.896;2022-10-26T01:02:15;12.30;1.00
21189;DHT22;39071;52.420;20.896;2022-10-26T01:04:41;12.30;1.00
21189;DHT22;39071;52.420;20.896;2022-10-26T01:07:09;12.30;1.00
21189;DHT22;39071;52.420;20.896;2022-10-26T01:09:35;12.30;1.00
21189;DHT22;39071;52.420;20.896;2022-10-26T01:12:01;12.40;1.00
21189;DHT22;39071;52.420;20.896;2022-10-26T01:14:27;12.40;1.00
21189;DHT22;39071;52.420;20.896;2022-10-26T01:30:50;12.60;99.90
21189;DHT22;39071;52.420;20.896;2022-10-26T01:35:51;12.70;99.90
21189;DHT22;39071;52.420;20.896;2022-10-26T01:38:25;12.70;99.90
21189;DHT22;39071;52.420;20.896;2022-10-26T01:41:12;12.70;99.90
21189;DHT22;39071;52.420;20.896;2022-10-26T01:43:45;12.80;99.90
21189;DHT22;39071;52.420;20.896;2022-10-26T01:46:14;12.80;99.90
21189;DHT22;39071;52.420;20.896;2022-10-26T01:48:42;12.90;99.90
21189;DHT22;39071;52.420;20.896;2022-10-26T01:51:10;12.90;99.90
21189;DHT22;39071;52.420;20.896;2022-10-26T01:53:43;12.90;99.90
21189;DHT22;39071;52.420;20.896;2022-10-26T01:56:17;12.90;99.90
21189;DHT22;39071;52.420;20.896;2022-10-26T01:59:00;13.00;99.90
21189;DHT22;39071;52.420;20.896;2022-10-26T02:01:37;13.00;99.90
21189;DHT22;39071;52.420;20.896;2022-10-26T02:07:13;13.00;99.90
21189;DHT22;39071;52.420;20.896;2022-10-26T02:15:34;13.10;99.90
21189;DHT22;39071;52.420;20.896;2022-10-26T02:18:30;13.10;99.90
21189;DHT22;39071;52.420;20.896;2022-10-26T02:21:04;13.10;99.90
21189;DHT22;39071;52.420;20.896;2022-10-26T02:23:34;13.10;99.90
21189;DHT22;39071;52.420;20.896;2022-10-26T02:26:02;13.10;96.30
21189;DHT22;39071;52.420;20.896;2022-10-26T02:28:35;13.20;99.90
21189;DHT22;39071;52.420;20.896;2022-10-26T02:31:03;13.20;99.90
21189;DHT22;39071;52.420;20.896;2022-10-26T02:33:34;13.20;99.90
21189;DHT22;39071;52.420;20.896;2022-10-26T02:36:04;13.20;99.90
21189;DHT22;39071;52.420;20.896;2022-10-26T02:38:32;13.30;99.90
21189;DHT22;39071;52.420;20.896;2022-10-26T02:41:00;13.20;99.90
21189;DHT22;39071;52.420;20.896;2022-10-26T02:43:29;13.30;99.90
21189;DHT22;39071;52.420;20.896;2022-10-26T02:46:03;13.30;99.90
21189;DHT22;39071;52.420;20.896;2022-10-26T02:48:30;13.40;99.90
21189;DHT22;39071;52.420;20.896;2022-10-26T02:51:48;13.40;99.90
21189;DHT22;39071;52.420;20.896;2022-10-26T02:53:55;13.40;99.90
21189;DHT22;39071;52.420;20.896;2022-10-26T02:56:32;13.40;92.20
21189;DHT22;39071;52.420;20.896;2022-10-26T02:59:03;13.40;74.70
21189;DHT22;39071;52.420;20.896;2022-10-26T03:01:31;13.40;21.70
21189;DHT22;39071;52.420;20.896;2022-10-26T03:03:58;13.40;7.50
21189;DHT22;39071;52.420;20.896;2022-10-26T03:06:25;13.40;2.20
21189;DHT22;39071;52.420;20.896;2022-10-26T03:08:51;13.40;3.00
21189;DHT22;39071;52.420;20.896;2022-10-26T03:11:17;13.50;1.00
21189;DHT22;39071;52.420;20.896;2022-10-26T03:13:43;13.50;1.00
21189;DHT22;39071;52.420;20.896;2022-10-26T03:16:09;13.40;1.00
21189;DHT22;39071;52.420;20.896;2022-10-26T03:18:35;13.40;1.00
21189;DHT22;39071;52.420;20.896;2022-10-26T03:21:01;13.50;1.00
21189;DHT22;39071;52.420;20.896;2022-10-26T03:23:27;13.40;1.00
21189;DHT22;39071;52.420;20.896;2022-10-26T03:25:59;13.40;1.00
21189;DHT22;39071;52.420;20.896;2022-10-26T03:28:25;13.50;1.00
21189;DHT22;39071;52.420;20.896;2022-10-26T03:30:51;13.50;1.00
21189;DHT22;39071;52.420;20.896;2022-10-26T03:33:17;13.50;1.00
21189;DHT22;39071;52.420;20.896;2022-10-26T03:35:43;13.50;1.00
21189;DHT22;39071;52.420;20.896;2022-10-26T03:38:09;13.50;1.00
21189;DHT22;39071;52.420;20.896;2022-10-26T03:40:35;13.50;1.00
21189;DHT22;39071;52.420;20.896;2022-10-26T03:43:01;13.50;1.00
21189;DHT22;39071;52.420;20.896;2022-10-26T03:45:27;13.50;1.00
21189;DHT22;39071;52.420;20.896;2022-10-26T03:47:53;13.60;99.90
21189;DHT22;39071;52.420;20.896;2022-10-26T03:50:20;13.60;99.90
21189;DHT22;39071;52.420;20.896;2022-10-26T03:52:47;13.60;1.00
21189;DHT22;39071;52.420;20.896;2022-10-26T03:55:14;13.60;1.00
21189;DHT22;39071;52.420;20.896;2022-10-26T03:57:41;13.60;1.00
21189;DHT22;39071;52.420;20.896;2022-10-26T04:00:08;13.60;99.90
21189;DHT22;39071;52.420;20.896;2022-10-26T04:02:33;13.60;1.00
21189;DHT22;39071;52.420;20.896;2022-10-26T04:04:59;13.50;1.00
21189;DHT22;39071;52.420;20.896;2022-10-26T04:07:25;13.50;1.00
21189;DHT22;39071;52.420;20.896;2022-10-26T04:09:51;13.50;99.90
21189;DHT22;39071;52.420;20.896;2022-10-26T04:12:16;13.50;1.00
21189;DHT22;39071;52.420;20.896;2022-10-26T04:14:42;13.60;1.00
21189;DHT22;39071;52.420;20.896;2022-10-26T04:17:08;13.60;99.90
21189;DHT22;39071;52.420;20.896;2022-10-26T04:19:33;13.60;44.50
21189;DHT22;39071;52.420;20.896;2022-10-26T04:21:59;13.60;1.00
21189;DHT22;39071;52.420;20.896;2022-10-26T04:24:25;13.60;99.90
21189;DHT22;39071;52.420;20.896;2022-10-26T04:26:50;13.60;99.90
21189;DHT22;39071;52.420;20.896;2022-10-26T04:29:16;13.60;99.90
21189;DHT22;39071;52.420;20.896;2022-10-26T04:31:42;13.60;1.00
21189;DHT22;39071;52.420;20.896;2022-10-26T04:34:08;13.60;1.00
21189;DHT22;39071;52.420;20.896;2022-10-26T04:36:33;13.60;1.00
21189;DHT22;39071;52.420;20.896;2022-10-26T04:38:59;13.60;1.00
21189;DHT22;39071;52.420;20.896;2022-10-26T04:41:25;13.60;1.00
21189;DHT22;39071;52.420;20.896;2022-10-26T04:43:51;13.60;99.90
21189;DHT22;39071;52.420;20.896;2022-10-26T04:46:16;13.60;99.90
21189;DHT22;39071;52.420;20.896;2022-10-26T04:48:42;13.60;99.90
21189;DHT22;39071;52.420;20.896;2022-10-26T04:51:08;13.60;1.00
21189;DHT22;39071;52.420;20.896;2022-10-26T04:53:34;13.50;1.00
21189;DHT22;39071;52.420;20.896;2022-10-26T04:56:00;13.60;1.00
21189;DHT22;39071;52.420;20.896;2022-10-26T04:58:27;13.50;1.00
21189;DHT22;39071;52.420;20.896;2022-10-26T05:00:53;13.60;1.00
21189;DHT22;39071;52.420;20.896;2022-10-26T05:03:19;13.50;1.00
21189;DHT22;39071;52.420;20.896;2022-10-26T05:05:45;13.50;99.90
21189;DHT22;39071;52.420;20.896;2022-10-26T05:08:15;13.50;1.00
21189;DHT22;39071;52.420;20.896;2022-10-26T05:10:41;13.50;1.00
21189;DHT22;39071;52.420;20.896;2022-10-26T05:13:08;13.60;1.00
21189;DHT22;39071;52.420;20.896;2022-10-26T05:15:35;13.60;99.90
21189;DHT22;39071;52.420;20.896;2022-10-26T05:18:03;13.60;99.90
21189;DHT22;39071;52.420;20.896;2022-10-26T05:20:32;13.40;1.00
21189;DHT22;39071;52.420;20.896;2022-10-26T05:22:59;13.50;99.90
21189;DHT22;39071;52.420;20.896;2022-10-26T05:25:33;13.40;1.00
21189;DHT22;39071;52.420;20.896;2022-10-26T05:28:01;13.50;1.00
21189;DHT22;39071;52.420;20.896;2022-10-26T05:30:29;13.50;1.00
21189;DHT22;39071;52.420;20.896;2022-10-26T05:32:56;13.50;1.00
21189;DHT22;39071;52.420;20.896;2022-10-26T05:35:22;13.50;1.00
21189;DHT22;39071;52.420;20.896;2022-10-26T05:37:48;13.50;1.00
21189;DHT22;39071;52.420;20.896;2022-10-26T05:40:14;13.50;99.90
21189;DHT22;39071;52.420;20.896;2022-10-26T05:42:41;13.50;1.00
21189;DHT22;39071;52.420;20.896;2022-10-26T05:45:07;13.50;1.00
21189;DHT22;39071;52.420;20.896;2022-10-26T05:47:40;13.50;99.90
21189;DHT22;39071;52.420;20.896;2022-10-26T05:50:07;13.50;99.90
21189;DHT22;39071;52.420;20.896;2022-10-26T05:52:41;13.50;99.90
21189;DHT22;39071;52.420;20.896;2022-10-26T05:55:11;13.50;1.00
21189;DHT22;39071;52.420;20.896;2022-10-26T05:57:38;13.50;1.00
21189;DHT22;39071;52.420;20.896;2022-10-26T06:00:25;13.60;1.00
21189;DHT22;39071;52.420;20.896;2022-10-26T06:03:21;13.50;1.00
21189;DHT22;39071;52.420;20.896;2022-10-26T06:05:54;13.60;1.00
21189;DHT22;39071;52.420;20.896;2022-10-26T06:08:22;13.60;1.00
21189;DHT22;39071;52.420;20.896;2022-10-26T06:10:49;13.60;1.00
21189;DHT22;39071;52.420;20.896;2022-10-26T06:13:15;13.60;1.00
21189;DHT22;39071;52.420;20.896;2022-10-26T06:24:06;13.70;1.00
21189;DHT22;39071;52.420;20.896;2022-10-26T06:26:48;13.70;1.00
21189;DHT22;39071;52.420;20.896;2022-10-26T06:29:43;13.70;1.00
21189;DHT22;39071;52.420;20.896;2022-10-26T06:32:10;13.80;1.00
21189;DHT22;39071;52.420;20.896;2022-10-26T06:34:41;13.80;99.90
21189;DHT22;39071;52.420;20.896;2022-10-26T06:37:09;13.80;99.90
21189;DHT22;39071;52.420;20.896;2022-10-26T06:39:37;13.80;99.90
21189;DHT22;39071;52.420;20.896;2022-10-26T06:42:05;13.90;99.90
21189;DHT22;39071;52.420;20.896;2022-10-26T06:44:31;13.90;1.00
21189;DHT22;39071;52.420;20.896;2022-10-26T06:47:14;13.90;1.00
21189;DHT22;39071;52.420;20.896;2022-10-26T06:52:36;13.90;99.90
21189;DHT22;39071;52.420;20.896;2022-10-26T06:55:04;13.90;99.90
21189;DHT22;39071;52.420;20.896;2022-10-26T06:57:37;14.00;99.90
21189;DHT22;39071;52.420;20.896;2022-10-26T07:00:06;14.00;1.00
21189;DHT22;39071;52.420;20.896;2022-10-26T07:02:33;14.00;1.00
21189;DHT22;39071;52.420;20.896;2022-10-26T07:04:59;14.00;1.00
21189;DHT22;39071;52.420;20.896;2022-10-26T07:07:27;14.00;1.00
21189;DHT22;39071;52.420;20.896;2022-10-26T07:09:54;14.10;1.00
21189;DHT22;39071;52.420;20.896;2022-10-26T07:12:20;14.00;1.00
21189;DHT22;39071;52.420;20.896;2022-10-26T07:14:45;14.10;1.00
21189;DHT22;39071;52.420;20.896;2022-10-26T07:17:11;14.10;1.00
21189;DHT22;39071;52.420;20.896;2022-10-26T07:19:37;14.20;1.00
21189;DHT22;39071;52.420;20.896;2022-10-26T07:22:05;14.20;99.90
21189;DHT22;39071;52.420;20.896;2022-10-26T07:24:31;14.20;99.90
21189;DHT22;39071;52.420;20.896;2022-10-26T07:26:57;14.30;99.90
21189;DHT22;39071;52.420;20.896;2022-10-26T07:29:24;14.40;99.90
21189;DHT22;39071;52.420;20.896;2022-10-26T07:31:51;14.40;99.90
21189;DHT22;39071;52.420;20.896;2022-10-26T07:34:17;14.40;99.90
21189;DHT22;39071;52.420;20.896;2022-10-26T07:36:43;14.30;73.30
21189;DHT22;39071;52.420;20.896;2022-10-26T07:39:08;14.30;99.90
21189;DHT22;39071;52.420;20.896;2022-10-26T07:41:34;14.40;99.90
21189;DHT22;39071;52.420;20.896;2022-10-26T07:44:00;14.60;99.90
21189;DHT22;39071;52.420;20.896;2022-10-26T07:46:26;14.60;99.90
21189;DHT22;39071;52.420;20.896;2022-10-26T07:48:52;14.70;60.40
21189;DHT22;39071;52.420;20.896;2022-10-26T07:51:18;14.80;21.10
21189;DHT22;39071;52.420;20.896;2022-10-26T07:53:44;14.80;1.00
21189;DHT22;39071;52.420;20.896;2022-10-26T07:56:11;14.80;1.00
21189;DHT22;39071;52.420;20.896;2022-10-26T07:58:37;14.70;1.00
21189;DHT22;39071;52.420;20.896;2022-10-26T08:01:08;14.60;1.00
21189;DHT22;39071;52.420;20.896;2022-10-26T08:03:34;14.70;1.00
21189;DHT22;39071;52.420;20.896;2022-10-26T08:06:00;14.70;1.00
21189;DHT22;39071;52.420;20.896;2022-10-26T08:08:28;14.80;1.00
21189;DHT22;39071;52.420;20.896;2022-10-26T08:10:54;14.80;1.00
21189;DHT22;39071;52.420;20.896;2022-10-26T08:13:19;14.90;1.00
21189;DHT22;39071;52.420;20.896;2022-10-26T08:15:45;14.90;1.00
21189;DHT22;39071;52.420;20.896;2022-10-26T08:18:12;15.00;1.00
21189;DHT22;39071;52.420;20.896;2022-10-26T08:20:38;14.90;1.00
21189;DHT22;39071;52.420;20.896;2022-10-26T08:23:03;14.80;1.00
21189;DHT22;39071;52.420;20.896;2022-10-26T08:25:31;14.80;1.00
21189;DHT22;39071;52.420;20.896;2022-10-26T08:28:01;14.70;1.00
21189;DHT22;39071;52.420;20.896;2022-10-26T08:30:29;14.80;1.00
21189;DHT22;39071;52.420;20.896;2022-10-26T08:33:02;14.80;1.00
21189;DHT22;39071;52.420;20.896;2022-10-26T08:35:29;14.80;1.00
21189;DHT22;39071;52.420;20.896;2022-10-26T08:37:55;14.90;1.00
21189;DHT22;39071;52.420;20.896;2022-10-26T08:40:24;14.90;1.00
21189;DHT22;39071;52.420;20.896;2022-10-26T08:43:15;14.90;1.00
21189;DHT22;39071;52.420;20.896;2022-10-26T08:46:39;14.90;1.00
21189;DHT22;39071;52.420;20.896;2022-10-26T08:48:46;14.90;1.00
21189;DHT22;39071;52.420;20.896;2022-10-26T08:51:27;14.80;1.00
21189;DHT22;39071;52.420;20.896;2022-10-26T08:54:05;14.80;1.00
21189;DHT22;39071;52.420;20.896;2022-10-26T08:56:44;14.60;1.00
21189;DHT22;39071;52.420;20.896;2022-10-26T08:59:16;14.70;1.00
21189;DHT22;39071;52.420;20.896;2022-10-26T09:01:45;14.50;1.00
21189;DHT22;39071;52.420;20.896;2022-10-26T09:04:11;14.60;1.00
21189;DHT22;39071;52.420;20.896;2022-10-26T09:10:03;14.60;1.00
21189;DHT22;39071;52.420;20.896;2022-10-26T09:25:40;14.30;1.00
21189;DHT22;39071;52.420;20.896;2022-10-26T09:28:15;14.30;1.00
21189;DHT22;39071;52.420;20.896;2022-10-26T09:30:44;14.40;1.00
21189;DHT22;39071;52.420;20.896;2022-10-26T09:33:18;14.40;1.00
21189;DHT22;39071;52.420;20.896;2022-10-26T09:36:05;14.40;1.00
21189;DHT22;39071;52.420;20.896;2022-10-26T09:38:46;14.30;1.00
21189;DHT22;39071;52.420;20.896;2022-10-26T09:47:14;14.40;1.00
21189;DHT22;39071;52.420;20.896;2022-10-26T09:49:51;14.30;1.00
21189;DHT22;39071;52.420;20.896;2022-10-26T09:52:18;14.30;1.00
21189;DHT22;39071;52.420;20.896;2022-10-26T09:54:44;14.20;1.00
21189;DHT22;39071;52.420;20.896;2022-10-26T09:57:16;14.10;1.00
21189;DHT22;39071;52.420;20.896;2022-10-26T09:59:44;14.00;1.00
21189;DHT22;39071;52.420;20.896;2022-10-26T10:02:31;13.90;1.00
21189;DHT22;39071;52.420;20.896;2022-10-26T10:04:57;13.80;1.00
21189;DHT22;39071;52.420;20.896;2022-10-26T10:07:23;13.80;1.00
21189;DHT22;39071;52.420;20.896;2022-10-26T10:10:07;13.70;1.00
21189;DHT22;39071;52.420;20.896;2022-10-26T10:12:33;13.80;1.00
21189;DHT22;39071;52.420;20.896;2022-10-26T10:14:59;13.80;57.60
21189;DHT22;39071;52.420;20.896;2022-10-26T10:17:25;13.80;3.30
21189;DHT22;39071;52.420;20.896;2022-10-26T10:19:51;13.80;1.00
21189;DHT22;39071;52.420;20.896;2022-10-26T10:22:24;13.80;35.10
21189;DHT22;39071;52.420;20.896;2022-10-26T10:27:23;13.90;1.00
21189;DHT22;39071;52.420;20.896;2022-10-26T10:29:51;13.90;1.00
21189;DHT22;39071;52.420;20.896;2022-10-26T10:32:22;14.00;91.60
21189;DHT22;39071;52.420;20.896;2022-10-26T10:34:50;14.10;1.00
21189;DHT22;39071;52.420;20.896;2022-10-26T10:39:57;14.10;1.00
21189;DHT22;39071;52.420;20.896;2022-10-26T10:42:28;14.10;1.00
21189;DHT22;39071;52.420;20.896;2022-10-26T10:44:56;14.20;1.00
21189;DHT22;39071;52.420;20.896;2022-10-26T10:47:33;14.30;1.00
21189;DHT22;39071;52.420;20.896;2022-10-26T10:50:10;14.40;1.00
21189;DHT22;39071;52.420;20.896;2022-10-26T10:52:40;14.40;1.00
21189;DHT22;39071;52.420;20.896;2022-10-26T11:00:17;14.40;1.00
21189;DHT22;39071;52.420;20.896;2022-10-26T11:03:11;14.40;1.00
21189;DHT22;39071;52.420;20.896;2022-10-26T11:08:39;14.50;1.00
21189;DHT22;39071;52.420;20.896;2022-10-26T11:11:25;14.50;1.00
21189;DHT22;39071;52.420;20.896;2022-10-26T11:13:56;14.50;1.00
21189;DHT22;39071;52.420;20.896;2022-10-26T11:16:36;14.50;1.00
21189;DHT22;39071;52.420;20.896;2022-10-26T11:21:43;14.50;1.00
21189;DHT22;39071;52.420;20.896;2022-10-26T11:26:53;14.60;1.00
21189;DHT22;39071;52.420;20.896;2022-10-26T11:32:27;14.60;1.00
21189;DHT22;39071;52.420;20.896;2022-10-26T11:35:20;14.60;1.00
21189;DHT22;39071;52.420;20.896;2022-10-26T11:40:46;14.60;1.00
21189;DHT22;39071;52.420;20.896;2022-10-26T11:43:22;14.60;1.00
21189;DHT22;39071;52.420;20.896;2022-10-26T11:46:30;14.50;1.00
21189;DHT22;39071;52.420;20.896;2022-10-26T11:49:05;14.60;1.00
21189;DHT22;39071;52.420;20.896;2022-10-26T11:54:24;14.60;1.00
21189;DHT22;39071;52.420;20.896;2022-10-26T11:56:54;14.60;1.00
21189;DHT22;39071;52.420;20.896;2022-10-26T11:59:26;14.70;1.00
21189;DHT22;39071;52.420;20.896;2022-10-26T12:02:18;14.70;1.00
21189;DHT22;39071;52.420;20.896;2022-10-26T12:04:51;14.70;1.00
21189;DHT22;39071;52.420;20.896;2022-10-26T12:07:30;14.80;1.00
21189;DHT22;39071;52.420;20.896;2022-10-26T12:09:57;14.80;1.00
21189;DHT22;39071;52.420;20.896;2022-10-26T12:12:27;14.90;1.00
21189;DHT22;39071;52.420;20.896;2022-10-26T12:15:05;15.00;1.00
21189;DHT22;39071;52.420;20.896;2022-10-26T12:22:43;15.00;1.00
21189;DHT22;39071;52.420;20.896;2022-10-26T12:30:23;15.10;1.00
21189;DHT22;39071;52.420;20.896;2022-10-26T12:32:59;15.20;1.00
21189;DHT22;39071;52.420;20.896;2022-10-26T12:35:42;15.20;1.00
21189;DHT22;39071;52.420;20.896;2022-10-26T12:40:47;15.10;1.00
21189;DHT22;39071;52.420;20.896;2022-10-26T12:45:39;15.00;1.00
21189;DHT22;39071;52.420;20.896;2022-10-26T12:50:45;15.00;1.00
21189;DHT22;39071;52.420;20.896;2022-10-26T12:53:13;15.00;1.00
21189;DHT22;39071;52.420;20.896;2022-10-26T12:58:54;15.10;1.00
21189;DHT22;39071;52.420;20.896;2022-10-26T13:01:35;15.10;1.00
21189;DHT22;39071;52.420;20.896;2022-10-26T13:07:18;15.10;1.00
21189;DHT22;39071;52.420;20.896;2022-10-26T13:10:30;15.10;1.00
21189;DHT22;39071;52.420;20.896;2022-10-26T13:12:56;15.20;1.00
21189;DHT22;39071;52.420;20.896;2022-10-26T13:15:37;15.20;1.00
21189;DHT22;39071;52.420;20.896;2022-10-26T13:18:13;15.20;1.00
21189;DHT22;39071;52.420;20.896;2022-10-26T13:20:57;15.30;1.00
21189;DHT22;39071;52.420;20.896;2022-10-26T13:23:28;15.30;1.00
21189;DHT22;39071;52.420;20.896;2022-10-26T13:26:11;15.30;1.00
21189;DHT22;39071;52.420;20.896;2022-10-26T13:39:22;15.50;99.90
21189;DHT22;39071;52.420;20.896;2022-10-26T13:41:51;15.60;99.90
21189;DHT22;39071;52.420;20.896;2022-10-26T13:44:32;15.60;99.90
21189;DHT22;39071;52.420;20.896;2022-10-26T13:47:07;15.60;99.90
21189;DHT22;39071;52.420;20.896;2022-10-26T13:49:42;15.70;99.90
21189;DHT22;39071;52.420;20.896;2022-10-26T13:52:16;15.80;99.90
21189;DHT22;39071;52.420;20.896;2022-10-26T13:54:58;15.70;99.90
21189;DHT22;39071;52.420;20.896;2022-10-26T13:57:32;15.70;99.90
21189;DHT22;39071;52.420;20.896;2022-10-26T14:00:09;15.80;99.90
21189;DHT22;39071;52.420;20.896;2022-10-26T14:02:42;15.80;99.90
21189;DHT22;39071;52.420;20.896;2022-10-26T14:05:10;15.60;99.90
21189;DHT22;39071;52.420;20.896;2022-10-26T14:10:40;15.60;99.90
21189;DHT22;39071;52.420;20.896;2022-10-26T14:13:07;15.50;99.90
21189;DHT22;39071;52.420;20.896;2022-10-26T14:15:34;15.50;99.90
21189;DHT22;39071;52.420;20.896;2022-10-26T14:18:01;15.50;99.90
21189;DHT22;39071;52.420;20.896;2022-10-26T14:20:30;15.40;99.90
21189;DHT22;39071;52.420;20.896;2022-10-26T14:22:58;15.40;99.90
21189;DHT22;39071;52.420;20.896;2022-10-26T14:25:26;15.30;99.90
21189;DHT22;39071;52.420;20.896;2022-10-26T14:27:52;15.30;99.90
21189;DHT22;39071;52.420;20.896;2022-10-26T14:30:37;15.20;99.90
21189;DHT22;39071;52.420;20.896;2022-10-26T14:33:17;15.20;99.90
21189;DHT22;39071;52.420;20.896;2022-10-26T14:35:44;15.20;99.90
21189;DHT22;39071;52.420;20.896;2022-10-26T14:40:42;15.00;99.90
21189;DHT22;39071;52.420;20.896;2022-10-26T14:43:14;15.00;99.90
21189;DHT22;39071;52.420;20.896;2022-10-26T14:45:47;15.00;99.90
21189;DHT22;39071;52.420;20.896;2022-10-26T14:48:28;14.90;99.90
21189;DHT22;39071;52.420;20.896;2022-10-26T14:51:02;14.90;99.90
21189;DHT22;39071;52.420;20.896;2022-10-26T14:53:39;14.90;99.90
21189;DHT22;39071;52.420;20.896;2022-10-26T14:56:57;14.80;99.90
21189;DHT22;39071;52.420;20.896;2022-10-26T15:01:53;14.70;99.90
21189;DHT22;39071;52.420;20.896;2022-10-26T15:04:37;14.60;99.90
21189;DHT22;39071;52.420;20.896;2022-10-26T15:09:38;14.50;99.90
21189;DHT22;39071;52.420;20.896;2022-10-26T15:12:05;14.50;99.90
21189;DHT22;39071;52.420;20.896;2022-10-26T15:14:32;14.50;1.00
21189;DHT22;39071;52.420;20.896;2022-10-26T15:16:59;14.40;1.00
21189;DHT22;39071;52.420;20.896;2022-10-26T15:19:25;14.40;1.00
21189;DHT22;39071;52.420;20.896;2022-10-26T15:21:52;14.40;1.00
21189;DHT22;39071;52.420;20.896;2022-10-26T15:24:30;14.40;1.00
21189;DHT22;39071;52.420;20.896;2022-10-26T15:26:56;14.30;99.90
21189;DHT22;39071;52.420;20.896;2022-10-26T15:29:36;14.30;1.00
21189;DHT22;39071;52.420;20.896;2022-10-26T15:32:05;14.20;1.00
21189;DHT22;39071;52.420;20.896;2022-10-26T15:34:30;14.20;1.00
21189;DHT22;39071;52.420;20.896;2022-10-26T15:36:56;14.20;1.00
21189;DHT22;39071;52.420;20.896;2022-10-26T15:39:24;14.20;1.00
21189;DHT22;39071;52.420;20.896;2022-10-26T15:41:50;14.00;1.00
21189;DHT22;39071;52.420;20.896;2022-10-26T15:44:20;13.90;1.00
21189;DHT22;39071;52.420;20.896;2022-10-26T15:46:46;13.80;1.00
21189;DHT22;39071;52.420;20.896;2022-10-26T15:49:17;13.70;1.00
21189;DHT22;39071;52.420;20.896;2022-10-26T15:51:45;13.60;1.00
21189;DHT22;39071;52.420;20.896;2022-10-26T15:54:12;13.50;1.00
21189;DHT22;39071;52.420;20.896;2022-10-26T15:56:38;13.40;1.00
21189;DHT22;39071;52.420;20.896;2022-10-26T15:59:13;13.40;1.00
21189;DHT22;39071;52.420;20.896;2022-10-26T16:01:39;13.30;1.00
21189;DHT22;39071;52.420;20.896;2022-10-26T16:04:04;13.20;1.00
21189;DHT22;39071;52.420;20.896;2022-10-26T16:06:33;13.10;1.00
21189;DHT22;39071;52.420;20.896;2022-10-26T16:09:01;13.00;1.00
21189;DHT22;39071;52.420;20.896;2022-10-26T16:11:27;12.90;1.00
21189;DHT22;39071;52.420;20.896;2022-10-26T16:13:53;12.80;1.00
21189;DHT22;39071;52.420;20.896;2022-10-26T16:16:19;12.60;1.00
21189;DHT22;39071;52.420;20.896;2022-10-26T16:18:48;12.50;1.00
21189;DHT22;39071;52.420;20.896;2022-10-26T16:21:17;12.30;1.00
21189;DHT22;39071;52.420;20.896;2022-10-26T16:23:49;12.20;1.00
21189;DHT22;39071;52.420;20.896;2022-10-26T16:26:14;12.10;1.00
21189;DHT22;39071;52.420;20.896;2022-10-26T16:28:40;12.00;1.00
21189;DHT22;39071;52.420;20.896;2022-10-26T16:31:12;11.90;1.00
21189;DHT22;39071;52.420;20.896;2022-10-26T16:33:38;11.90;34.90
21189;DHT22;39071;52.420;20.896;2022-10-26T16:36:05;11.70;1.00
21189;DHT22;39071;52.420;20.896;2022-10-26T16:38:31;11.70;18.00
21189;DHT22;39071;52.420;20.896;2022-10-26T16:41:06;11.60;99.90
21189;DHT22;39071;52.420;20.896;2022-10-26T16:43:34;11.50;99.90
21189;DHT22;39071;52.420;20.896;2022-10-26T16:46:08;11.50;99.90
21189;DHT22;39071;52.420;20.896;2022-10-26T16:48:38;11.40;99.90
21189;DHT22;39071;52.420;20.896;2022-10-26T16:51:24;11.30;28.30
21189;DHT22;39071;52.420;20.896;2022-10-26T16:53:53;11.20;93.40
21189;DHT22;39071;52.420;20.896;2022-10-26T16:56:25;11.20;99.90
21189;DHT22;39071;52.420;20.896;2022-10-26T16:58:50;11.10;99.90
21189;DHT22;39071;52.420;20.896;2022-10-26T17:01:18;11.00;99.90
21189;DHT22;39071;52.420;20.896;2022-10-26T17:03:46;10.90;99.90
21189;DHT22;39071;52.420;20.896;2022-10-26T17:06:12;10.80;99.90
21189;DHT22;39071;52.420;20.896;2022-10-26T17:08:38;10.70;99.90
21189;DHT22;39071;52.420;20.896;2022-10-26T17:11:11;10.70;99.90
21189;DHT22;39071;52.420;20.896;2022-10-26T17:13:38;10.70;99.90
21189;DHT22;39071;52.420;20.896;2022-10-26T17:16:16;10.60;99.90
21189;DHT22;39071;52.420;20.896;2022-10-26T17:18:42;10.50;99.90
21189;DHT22;39071;52.420;20.896;2022-10-26T17:21:10;10.50;99.90
21189;DHT22;39071;52.420;20.896;2022-10-26T17:23:36;10.50;99.90
21189;DHT22;39071;52.420;20.896;2022-10-26T17:26:06;10.40;99.90
21189;DHT22;39071;52.420;20.896;2022-10-26T17:28:34;10.40;99.90
21189;DHT22;39071;52.420;20.896;2022-10-26T17:31:07;10.30;23.50
21189;DHT22;39071;52.420;20.896;2022-10-26T17:33:35;10.30;99.90
21189;DHT22;39071;52.420;20.896;2022-10-26T17:36:02;10.20;99.90
21189;DHT22;39071;52.420;20.896;2022-10-26T17:38:30;10.20;99.90
21189;DHT22;39071;52.420;20.896;2022-10-26T17:41:04;10.10;99.90
21189;DHT22;39071;52.420;20.896;2022-10-26T17:43:31;10.00;99.90
21189;DHT22;39071;52.420;20.896;2022-10-26T17:46:01;9.90;99.90
21189;DHT22;39071;52.420;20.896;2022-10-26T17:48:29;9.90;99.90
21189;DHT22;39071;52.420;20.896;2022-10-26T17:51:00;9.90;99.90
21189;DHT22;39071;52.420;20.896;2022-10-26T17:53:27;9.80;99.90
21189;DHT22;39071;52.420;20.896;2022-10-26T17:56:14;9.80;99.90
21189;DHT22;39071;52.420;20.896;2022-10-26T17:58:40;9.70;99.90